Time;durP1;ratioP1;P1;durP2;ratioP2;P2;SDS_P1;SDS_P2;PMS_P1;PMS_P2;Temp;Humidity;BMP_temperature;BMP_pressure;BME280_temperature;BME280_humidity;BME280_pressure;Samples;Min_cycle;Max_cycle;Signal;HPM_P1;HPM_P2
2021/12/22 00:01:39;;;;;;;26.65;16.77;;;-0.60;99.90;;;;;;5077169;28;20024;-67
2021/12/22 00:04:05;;;;;;;29.30;18.42;;;-0.70;99.90;;;;;;5076890;28;20032;-67
2021/12/22 00:06:33;;;;;;;31.90;17.42;;;-0.60;99.90;;;;;;5076829;28;20028;-67
2021/12/22 00:08:59;;;;;;;28.30;18.05;;;-0.70;99.90;;;;;;5076753;28;20119;-68
2021/12/22 00:11:27;;;;;;;29.48;17.65;;;-0.70;99.90;;;;;;5076827;28;20037;-67
2021/12/22 00:13:53;;;;;;;26.63;16.80;;;-0.80;99.90;;;;;;5076828;28;20105;-67
2021/12/22 00:16:19;;;;;;;27.92;17.05;;;-0.80;99.90;;;;;;5077470;28;20276;-67
2021/12/22 00:18:45;;;;;;;27.13;17.65;;;-0.80;99.90;;;;;;5076687;28;20054;-67
2021/12/22 00:21:11;;;;;;;27.17;17.00;;;-0.70;99.90;;;;;;5076862;28;20406;-68
2021/12/22 00:23:37;;;;;;;26.88;16.95;;;-0.70;99.90;;;;;;5077419;28;20406;-67
2021/12/22 00:26:04;;;;;;;28.15;17.20;;;-0.70;99.90;;;;;;5077115;28;20329;-67
2021/12/22 00:28:31;;;;;;;26.45;16.77;;;-0.80;99.90;;;;;;5076524;28;20044;-67
2021/12/22 00:30:58;;;;;;;27.90;16.77;;;-0.80;99.90;;;;;;5059326;28;20408;-68
2021/12/22 00:33:27;;;;;;;27.90;17.33;;;-0.80;99.90;;;;;;5076488;28;20431;-67
2021/12/22 00:35:53;;;;;;;26.00;17.10;;;-0.80;99.90;;;;;;5076407;28;20061;-67
2021/12/22 00:38:20;;;;;;;27.83;16.73;;;-0.80;99.90;;;;;;5075864;28;20043;-67
2021/12/22 00:40:48;;;;;;;29.48;17.20;;;-0.80;99.90;;;;;;5076473;28;20392;-67
2021/12/22 00:43:15;;;;;;;26.88;17.13;;;-0.80;99.90;;;;;;5075738;28;20032;-67
2021/12/22 00:45:42;;;;;;;27.48;17.00;;;-0.80;99.90;;;;;;5076443;28;20025;-67
2021/12/22 00:48:09;;;;;;;25.85;16.75;;;-0.90;99.90;;;;;;5075992;28;20024;-67
2021/12/22 00:50:37;;;;;;;25.35;16.65;;;-0.90;99.90;;;;;;5077008;28;20127;-67
2021/12/22 00:53:04;;;;;;;27.17;17.50;;;-0.90;99.90;;;;;;5076225;28;20153;-67
2021/12/22 00:55:30;;;;;;;26.30;16.52;;;-0.90;99.90;;;;;;5080033;28;20302;-67
2021/12/22 00:57:56;;;;;;;26.55;17.40;;;-0.90;99.90;;;;;;5062687;28;20066;-67
2021/12/22 01:00:24;;;;;;;25.25;16.58;;;-0.90;99.90;;;;;;5080199;28;20100;-68
2021/12/22 01:02:50;;;;;;;27.27;16.35;;;-1.00;99.90;;;;;;5080226;28;20024;-67
2021/12/22 01:05:17;;;;;;;30.33;17.02;;;-1.00;99.90;;;;;;5080576;28;20044;-67
2021/12/22 01:07:46;;;;;;;28.02;17.58;;;-1.00;99.90;;;;;;5079869;28;20063;-67
2021/12/22 01:10:14;;;;;;;27.05;17.38;;;-1.00;99.90;;;;;;5080073;28;20135;-67
2021/12/22 01:12:40;;;;;;;27.08;16.35;;;-1.10;99.90;;;;;;5080017;28;20039;-67
2021/12/22 01:15:11;;;;;;;25.80;16.67;;;-1.00;99.90;;;;;;5080133;28;20037;-67
2021/12/22 01:17:42;;;;;;;22.92;16.40;;;-1.00;99.90;;;;;;5079735;28;20028;-68
2021/12/22 01:20:21;;;;;;;25.67;17.02;;;-1.00;99.90;;;;;;5079898;28;20028;-67
2021/12/22 01:22:48;;;;;;;25.02;16.15;;;-1.10;99.90;;;;;;5079749;28;20299;-67
2021/12/22 01:25:18;;;;;;;28.48;17.02;;;-1.10;99.90;;;;;;5079634;28;20115;-67
2021/12/22 01:27:44;;;;;;;27.58;15.98;;;-1.10;99.90;;;;;;5079728;28;20036;-67
2021/12/22 01:30:26;;;;;;;26.80;16.50;;;-1.10;99.90;;;;;;5078999;28;20037;-67
2021/12/22 01:32:55;;;;;;;30.20;17.13;;;-1.10;99.90;;;;;;5079592;28;20307;-67
2021/12/22 01:35:24;;;;;;;28.08;16.13;;;-1.20;99.90;;;;;;5079497;28;20072;-67
2021/12/22 01:37:50;;;;;;;30.92;16.38;;;-1.20;99.90;;;;;;5079930;28;20040;-67
2021/12/22 01:40:18;;;;;;;26.15;16.70;;;-1.30;99.90;;;;;;5079856;28;20039;-67
2021/12/22 01:42:44;;;;;;;27.67;17.55;;;-1.20;99.90;;;;;;5079886;28;20047;-67
2021/12/22 01:45:28;;;;;;;28.73;16.75;;;-1.20;99.90;;;;;;5079756;28;20077;-67
2021/12/22 01:50:47;;;;;;;27.25;16.90;;;-1.10;99.90;;;;;;5079957;28;20032;-67
2021/12/22 01:53:21;;;;;;;28.38;16.35;;;-1.20;99.90;;;;;;5079291;28;20474;-66
2021/12/22 01:56:28;;;;;;;26.90;15.98;;;-1.20;99.90;;;;;;5079282;28;20119;-66
2021/12/22 01:58:59;;;;;;;27.40;16.13;;;-1.30;99.90;;;;;;5071000;28;20045;-66
2021/12/22 02:01:29;;;;;;;26.42;16.45;;;-1.30;99.90;;;;;;5079687;28;20032;-66
2021/12/22 02:03:55;;;;;;;29.77;16.27;;;-1.40;99.90;;;;;;5079025;28;20119;-67
2021/12/22 02:06:22;;;;;;;28.13;16.48;;;-1.40;99.90;;;;;;5078395;28;20055;-66
2021/12/22 02:08:48;;;;;;;27.27;16.40;;;-1.40;99.90;;;;;;5078920;28;20036;-66
2021/12/22 02:11:16;;;;;;;28.08;16.13;;;-1.40;99.90;;;;;;5079554;28;20037;-66
2021/12/22 02:13:47;;;;;;;23.13;16.30;;;-1.40;99.90;;;;;;5078835;28;20082;-66
2021/12/22 02:16:15;;;;;;;26.92;16.25;;;-1.40;99.90;;;;;;5078053;28;20047;-66
2021/12/22 02:18:45;;;;;;;26.67;16.45;;;-1.30;99.90;;;;;;5061213;28;20068;-66
2021/12/22 02:21:12;;;;;;;27.40;16.63;;;-1.30;99.90;;;;;;5079401;28;20158;-66
2021/12/22 02:23:39;;;;;;;26.98;16.48;;;-1.30;99.90;;;;;;5077924;28;20089;-66
2021/12/22 02:26:13;;;;;;;29.50;17.02;;;-1.30;99.90;;;;;;5061851;28;20295;-66
2021/12/22 02:28:45;;;;;;;27.40;17.30;;;-1.40;99.90;;;;;;5077974;28;20426;-66
2021/12/22 02:31:15;;;;;;;27.00;16.43;;;-1.30;99.90;;;;;;5077983;28;20042;-66
2021/12/22 02:33:43;;;;;;;26.25;16.50;;;-1.30;99.90;;;;;;5078624;28;20043;-66
2021/12/22 02:39:04;;;;;;;27.83;16.45;;;-1.40;99.90;;;;;;5078481;28;20202;-66
2021/12/22 02:41:31;;;;;;;30.83;17.08;;;-1.40;99.90;;;;;;5077748;28;20029;-66
2021/12/22 02:43:59;;;;;;;25.58;16.58;;;-1.40;99.90;;;;;;5061046;28;20047;-66
2021/12/22 02:46:32;;;;;;;27.70;16.23;;;-1.40;99.90;;;;;;5078336;28;20024;-66
2021/12/22 02:49:01;;;;;;;25.10;15.95;;;-1.50;99.90;;;;;;5078304;28;20036;-66
2021/12/22 02:51:29;;;;;;;26.75;16.73;;;-1.50;99.90;;;;;;5078358;28;20020;-66
2021/12/22 02:56:50;;;;;;;34.05;17.38;;;-1.50;99.90;;;;;;5078120;28;20400;-66
2021/12/22 02:59:51;;;;;;;26.45;16.30;;;-1.40;99.90;;;;;;5077466;28;20056;-66
2021/12/22 03:04:45;;;;;;;28.58;16.85;;;-1.50;99.90;;;;;;5077922;28;20062;-66
2021/12/22 03:07:17;;;;;;;25.27;16.35;;;-1.50;99.90;;;;;;5077411;28;20340;-66
2021/12/22 03:09:43;;;;;;;31.38;17.45;;;-1.60;99.90;;;;;;5077731;28;20205;-65
2021/12/22 03:12:13;;;;;;;30.05;16.85;;;-1.60;99.90;;;;;;5076986;28;20110;-66
2021/12/22 03:14:39;;;;;;;28.92;16.52;;;-1.50;99.90;;;;;;5076878;28;20090;-66
2021/12/22 03:17:06;;;;;;;32.10;16.05;;;-1.60;99.90;;;;;;5076508;28;20082;-66
2021/12/22 03:19:34;;;;;;;30.38;16.85;;;-1.60;99.90;;;;;;5077632;28;20032;-66
2021/12/22 03:22:04;;;;;;;28.50;17.20;;;-1.50;99.90;;;;;;5077494;28;20126;-66
2021/12/22 03:24:32;;;;;;;28.60;16.88;;;-1.50;99.90;;;;;;5077482;28;20041;-66
2021/12/22 03:27:02;;;;;;;33.13;17.35;;;-1.50;99.90;;;;;;5076632;28;20351;-66
2021/12/22 03:29:28;;;;;;;26.70;16.55;;;-1.50;99.90;;;;;;5077425;28;20024;-66
2021/12/22 03:31:54;;;;;;;26.23;16.30;;;-1.50;99.90;;;;;;5077313;28;20043;-65
2021/12/22 03:34:21;;;;;;;29.48;16.83;;;-1.60;99.90;;;;;;5076333;28;20320;-65
2021/12/22 03:36:46;;;;;;;25.92;16.58;;;-1.60;99.90;;;;;;5076525;28;20032;-65
2021/12/22 03:39:14;;;;;;;30.20;16.98;;;-1.60;99.90;;;;;;5077131;28;20061;-65
2021/12/22 03:41:41;;;;;;;26.85;16.45;;;-1.60;99.90;;;;;;5077192;28;20028;-66
2021/12/22 03:44:08;;;;;;;29.90;17.23;;;-1.60;99.90;;;;;;5076431;28;20483;-66
2021/12/22 03:46:35;;;;;;;27.25;16.95;;;-1.60;99.90;;;;;;5077088;28;20063;-65
2021/12/22 03:49:01;;;;;;;29.88;18.23;;;-1.60;99.90;;;;;;5077318;28;20303;-65
2021/12/22 03:51:27;;;;;;;27.83;16.45;;;-1.60;99.90;;;;;;5077106;28;20124;-65
2021/12/22 03:53:54;;;;;;;33.25;17.42;;;-1.50;99.90;;;;;;5077045;28;20037;-66
2021/12/22 03:56:21;;;;;;;32.50;17.55;;;-1.50;99.90;;;;;;5077056;28;20028;-66
2021/12/22 03:58:46;;;;;;;29.90;17.42;;;-1.50;99.90;;;;;;5076868;28;20299;-65
2021/12/22 04:01:13;;;;;;;36.20;18.75;;;-1.50;99.90;;;;;;5076993;28;20025;-66
2021/12/22 04:03:41;;;;;;;28.95;17.70;;;-1.50;99.90;;;;;;5076237;28;20105;-66
2021/12/22 04:06:07;;;;;;;32.80;18.58;;;-1.60;99.90;;;;;;5076953;28;20419;-66
2021/12/22 04:08:33;;;;;;;32.10;18.85;;;-1.70;99.90;;;;;;5076954;28;20041;-65
2021/12/22 04:10:59;;;;;;;29.20;17.77;;;-1.60;99.90;;;;;;5076890;28;20033;-66
2021/12/22 04:13:25;;;;;;;30.95;18.05;;;-1.60;99.90;;;;;;5076831;28;20309;-66
2021/12/22 04:15:51;;;;;;;33.95;18.33;;;-1.60;99.90;;;;;;5076149;28;20119;-66
2021/12/22 04:18:17;;;;;;;31.15;17.45;;;-1.70;99.90;;;;;;5076659;28;20033;-66
2021/12/22 04:20:43;;;;;;;28.15;17.48;;;-1.60;99.90;;;;;;5075954;28;20032;-66
2021/12/22 04:23:10;;;;;;;30.98;17.77;;;-1.70;99.90;;;;;;5075902;28;20167;-65
2021/12/22 04:25:36;;;;;;;30.08;18.27;;;-1.60;99.90;;;;;;5076000;28;20037;-65
2021/12/22 04:28:08;;;;;;;32.40;16.90;;;-1.60;99.90;;;;;;5076641;28;20399;-65
2021/12/22 04:30:36;;;;;;;30.67;17.30;;;-1.60;99.90;;;;;;5080713;28;20042;-65
2021/12/22 04:33:03;;;;;;;27.48;16.98;;;-1.70;99.90;;;;;;5080707;28;20028;-66
2021/12/22 04:35:30;;;;;;;32.20;18.23;;;-1.70;99.90;;;;;;5080615;28;20048;-66
2021/12/22 04:37:56;;;;;;;30.52;17.95;;;-1.60;99.90;;;;;;5081000;28;20063;-66
2021/12/22 04:40:22;;;;;;;35.95;18.02;;;-1.60;99.90;;;;;;5081119;28;20033;-66
2021/12/22 04:42:48;;;;;;;29.75;17.73;;;-1.70;99.90;;;;;;5080569;28;20030;-66
2021/12/22 04:45:15;;;;;;;29.15;17.55;;;-1.70;99.90;;;;;;5080614;28;20102;-66
2021/12/22 04:47:41;;;;;;;28.90;16.55;;;-1.70;99.90;;;;;;5079588;28;20388;-66
2021/12/22 04:50:11;;;;;;;34.67;18.15;;;-1.60;99.90;;;;;;5079750;28;20097;-66
2021/12/22 04:52:48;;;;;;;28.33;17.02;;;-1.70;99.90;;;;;;5079626;28;20087;-66
2021/12/22 04:55:14;;;;;;;29.02;16.42;;;-1.70;99.90;;;;;;5080325;28;20037;-66
2021/12/22 04:57:40;;;;;;;27.65;16.92;;;-1.80;99.90;;;;;;5080704;28;20355;-66
2021/12/22 05:00:10;;;;;;;29.45;16.77;;;-1.80;99.90;;;;;;5062817;28;20142;-66
2021/12/22 05:02:37;;;;;;;33.78;17.63;;;-1.80;99.90;;;;;;5079352;28;20025;-66
2021/12/22 05:05:03;;;;;;;31.08;16.85;;;-1.70;99.90;;;;;;5079574;28;20396;-66
2021/12/22 05:07:29;;;;;;;31.13;16.95;;;-1.80;99.90;;;;;;5080350;28;20070;-66
2021/12/22 05:09:55;;;;;;;28.10;16.17;;;-1.80;99.90;;;;;;5046124;28;20406;-66
2021/12/22 05:12:21;;;;;;;28.98;17.23;;;-1.70;99.90;;;;;;5079115;28;20117;-66
2021/12/22 05:14:50;;;;;;;29.73;16.77;;;-1.80;99.90;;;;;;5080015;28;20036;-66
2021/12/22 05:17:24;;;;;;;26.63;16.25;;;-1.80;99.90;;;;;;5079960;28;20354;-66
2021/12/22 05:19:50;;;;;;;29.73;15.55;;;-1.90;99.90;;;;;;5079953;28;20036;-65
2021/12/22 05:22:16;;;;;;;27.80;15.50;;;-1.80;99.90;;;;;;5062450;28;20127;-66
2021/12/22 05:24:42;;;;;;;28.40;16.40;;;-1.80;99.90;;;;;;5079814;28;20043;-65
2021/12/22 05:27:11;;;;;;;29.42;16.55;;;-1.70;99.90;;;;;;5079639;28;20036;-65
2021/12/22 05:29:38;;;;;;;27.90;16.27;;;-1.70;99.90;;;;;;5079676;28;20032;-65
2021/12/22 05:32:05;;;;;;;26.95;16.23;;;-1.70;99.90;;;;;;5079602;28;20091;-65
2021/12/22 05:34:32;;;;;;;29.98;17.10;;;-1.80;99.90;;;;;;5078748;28;20056;-65
2021/12/22 05:36:57;;;;;;;30.38;17.52;;;-1.70;99.90;;;;;;5079621;28;20048;-65
2021/12/22 05:39:23;;;;;;;25.55;15.77;;;-1.70;99.90;;;;;;5079192;28;20071;-65
2021/12/22 05:41:49;;;;;;;32.38;17.17;;;-1.70;99.90;;;;;;5079571;28;20292;-65
2021/12/22 05:44:15;;;;;;;33.50;16.73;;;-1.80;99.90;;;;;;5078749;28;20307;-65
2021/12/22 05:46:41;;;;;;;30.48;16.50;;;-1.80;99.90;;;;;;5079481;28;20037;-65
2021/12/22 05:49:06;;;;;;;29.58;16.42;;;-1.80;99.90;;;;;;5079237;28;20377;-65
2021/12/22 05:51:34;;;;;;;27.55;16.02;;;-1.90;99.90;;;;;;5079338;28;20361;-65
2021/12/22 05:54:00;;;;;;;24.90;15.45;;;-1.90;99.90;;;;;;5079315;28;20082;-65
2021/12/22 05:56:27;;;;;;;29.17;16.70;;;-1.90;99.90;;;;;;5062012;28;20114;-66
2021/12/22 05:58:53;;;;;;;27.13;16.45;;;-1.90;99.90;;;;;;5079412;28;20411;-65
2021/12/22 06:01:19;;;;;;;25.70;16.52;;;-1.80;99.90;;;;;;5079158;28;20060;-65
2021/12/22 06:03:45;;;;;;;32.65;17.27;;;-1.80;99.90;;;;;;5079096;28;20099;-65
2021/12/22 06:06:11;;;;;;;25.27;16.67;;;-1.90;99.90;;;;;;5079328;28;20129;-65
2021/12/22 06:08:37;;;;;;;30.50;16.45;;;-1.90;99.90;;;;;;5078916;28;20044;-66
2021/12/22 06:11:03;;;;;;;26.98;16.45;;;-1.80;99.90;;;;;;5078941;28;20055;-66
2021/12/22 06:13:29;;;;;;;27.67;16.10;;;-1.90;99.90;;;;;;5078875;28;20032;-65
2021/12/22 06:15:55;;;;;;;25.50;15.73;;;-1.90;99.90;;;;;;5078815;28;20064;-66
2021/12/22 06:18:21;;;;;;;27.58;15.70;;;-1.90;99.90;;;;;;5078702;28;20090;-65
2021/12/22 06:20:47;;;;;;;25.15;15.48;;;-2.00;99.90;;;;;;5078794;28;20083;-66
2021/12/22 06:23:13;;;;;;;27.75;15.75;;;-2.00;99.90;;;;;;5077858;28;20508;-66
2021/12/22 06:25:38;;;;;;;27.30;16.35;;;-1.90;99.90;;;;;;5078701;28;20052;-65
2021/12/22 06:28:05;;;;;;;27.45;15.95;;;-2.00;99.90;;;;;;5078554;28;20043;-65
2021/12/22 06:30:32;;;;;;;24.17;15.82;;;-2.00;99.90;;;;;;5078646;28;20106;-65
2021/12/22 06:32:57;;;;;;;24.65;15.38;;;-2.00;99.90;;;;;;5078482;28;20021;-65
2021/12/22 06:35:23;;;;;;;25.88;15.88;;;-1.80;99.90;;;;;;5077653;28;20044;-65
2021/12/22 06:37:51;;;;;;;24.40;16.02;;;-1.80;99.90;;;;;;5078461;28;20312;-65
2021/12/22 06:40:17;;;;;;;25.45;15.52;;;-1.80;99.90;;;;;;5078410;28;20035;-65
2021/12/22 06:42:44;;;;;;;26.88;16.63;;;-2.00;99.90;;;;;;5078307;28;20448;-65
2021/12/22 06:45:12;;;;;;;25.50;16.17;;;-2.00;99.90;;;;;;5078276;28;20286;-65
2021/12/22 06:47:38;;;;;;;27.73;15.65;;;-1.90;99.90;;;;;;5078140;28;20036;-65
2021/12/22 06:50:06;;;;;;;31.60;16.80;;;-1.90;99.90;;;;;;5078189;28;20506;-64
2021/12/22 06:52:32;;;;;;;28.45;16.05;;;-1.90;99.90;;;;;;5077222;28;20392;-64
2021/12/22 06:54:57;;;;;;;24.42;15.48;;;-1.80;99.90;;;;;;5077412;28;20304;-64
2021/12/22 06:57:24;;;;;;;27.98;15.90;;;-1.80;99.90;;;;;;5077306;28;20081;-64
2021/12/22 06:59:49;;;;;;;27.77;16.98;;;-1.80;99.90;;;;;;5077984;28;20024;-65
2021/12/22 07:02:16;;;;;;;25.45;14.50;;;-1.90;99.90;;;;;;5078349;28;20037;-64
2021/12/22 07:04:42;;;;;;;24.33;15.45;;;-1.90;99.90;;;;;;5077846;28;20037;-64
2021/12/22 07:07:08;;;;;;;25.50;15.27;;;-1.90;99.90;;;;;;5077686;28;20060;-64
2021/12/22 07:09:34;;;;;;;29.92;16.08;;;-2.00;99.90;;;;;;5077353;28;20060;-64
2021/12/22 07:12:00;;;;;;;28.95;15.85;;;-2.00;99.90;;;;;;5077055;28;20111;-65
2021/12/22 07:14:26;;;;;;;24.98;15.38;;;-2.00;99.90;;;;;;5076998;28;20024;-66
2021/12/22 07:16:52;;;;;;;26.15;15.95;;;-1.90;99.90;;;;;;5077632;28;20060;-65
2021/12/22 07:19:18;;;;;;;26.92;15.43;;;-1.90;99.90;;;;;;5076900;28;20403;-65
2021/12/22 07:21:44;;;;;;;29.33;16.92;;;-1.80;99.90;;;;;;5076721;28;20096;-65
2021/12/22 07:24:10;;;;;;;27.27;16.17;;;-1.80;99.90;;;;;;5077442;28;20112;-65
2021/12/22 07:26:38;;;;;;;28.13;15.35;;;-1.90;99.90;;;;;;5077995;28;20071;-65
2021/12/22 07:29:04;;;;;;;25.85;15.18;;;-1.90;99.90;;;;;;5076522;28;20032;-64
2021/12/22 07:31:30;;;;;;;30.70;16.13;;;-1.90;99.90;;;;;;5077451;28;20027;-67
2021/12/22 07:34:25;;;;;;;25.98;15.75;;;-1.80;99.90;;;;;;5076589;28;20043;-64
2021/12/22 07:37:17;;;;;;;26.92;15.73;;;-1.80;99.90;;;;;;5064537;28;20063;-64
2021/12/22 07:39:43;;;;;;;29.42;16.65;;;-1.90;99.90;;;;;;5076996;28;20037;-65
2021/12/22 07:42:10;;;;;;;22.45;14.88;;;-1.70;99.90;;;;;;5077112;28;20044;-64
2021/12/22 07:44:36;;;;;;;24.63;15.00;;;-1.70;99.90;;;;;;5076502;28;20021;-64
2021/12/22 07:47:02;;;;;;;26.23;15.48;;;-1.70;99.90;;;;;;5077012;28;20039;-65
2021/12/22 07:49:27;;;;;;;27.42;16.00;;;-1.80;99.90;;;;;;5076455;28;20292;-65
2021/12/22 07:51:53;;;;;;;25.58;15.57;;;-1.80;99.90;;;;;;5076408;28;20043;-64
2021/12/22 07:54:19;;;;;;;27.30;15.80;;;-1.80;99.90;;;;;;5076579;28;20033;-65
2021/12/22 07:56:45;;;;;;;29.05;15.52;;;-1.70;99.90;;;;;;5076328;28;20025;-65
2021/12/22 07:59:11;;;;;;;26.85;16.77;;;-1.70;99.90;;;;;;5076381;28;20032;-64
2021/12/22 08:01:37;;;;;;;32.00;19.13;;;-0.10;99.90;;;;;;5076967;28;20119;-65
2021/12/22 08:04:03;;;;;;;26.73;16.65;;;-0.40;99.90;;;;;;5075963;28;20044;-65
2021/12/22 08:06:28;;;;;;;27.33;15.85;;;-0.60;99.90;;;;;;5076973;28;20266;-64
2021/12/22 08:08:54;;;;;;;25.35;15.55;;;-0.80;99.90;;;;;;5076303;28;20036;-65
2021/12/22 08:11:20;;;;;;;24.50;14.95;;;-1.00;99.90;;;;;;5076162;28;20036;-65
2021/12/22 08:13:46;;;;;;;28.02;15.40;;;-1.10;99.90;;;;;;5076890;28;20032;-64
2021/12/22 08:16:12;;;;;;;26.00;15.95;;;-1.10;99.90;;;;;;5076719;28;20028;-66
2021/12/22 08:18:38;;;;;;;24.27;14.77;;;-1.30;99.90;;;;;;5076598;28;20040;-65
2021/12/22 08:21:04;;;;;;;27.30;15.82;;;-1.30;99.90;;;;;;5076794;28;20035;-66
2021/12/22 08:23:30;;;;;;;24.65;14.55;;;-1.30;99.90;;;;;;5076607;28;20060;-65
2021/12/22 08:25:56;;;;;;;25.88;15.85;;;-1.30;99.90;;;;;;5075911;28;20043;-65
2021/12/22 08:28:22;;;;;;;27.75;16.73;;;-1.30;99.90;;;;;;5042537;28;20037;-65
2021/12/22 08:30:48;;;;;;;23.77;15.13;;;-1.20;99.90;;;;;;5076577;28;20107;-65
2021/12/22 08:33:22;;;;;;;22.27;15.38;;;-1.20;99.90;;;;;;5076626;28;20064;-66
2021/12/22 08:38:56;;;;;;;23.10;13.52;;;-1.10;99.90;;;;;;5076642;28;20037;-65
2021/12/22 08:41:32;;;;;;;21.42;13.32;;;-1.10;99.90;;;;;;5076603;28;20039;-65
2021/12/22 08:44:01;;;;;;;23.30;13.57;;;-1.10;99.90;;;;;;5076523;28;20032;-65
2021/12/22 08:46:28;;;;;;;24.35;13.73;;;-1.00;99.90;;;;;;5076513;28;20032;-65
2021/12/22 08:48:55;;;;;;;24.08;14.20;;;-0.90;99.90;;;;;;5076346;28;20037;-65
2021/12/22 08:51:22;;;;;;;21.10;12.57;;;-0.80;99.90;;;;;;5076313;28;20028;-65
2021/12/22 08:53:48;;;;;;;19.55;12.40;;;-0.70;99.90;;;;;;5076294;28;20032;-65
2021/12/22 08:56:14;;;;;;;21.48;12.30;;;-0.60;99.90;;;;;;5076413;28;20041;-66
2021/12/22 08:58:40;;;;;;;21.58;12.07;;;-0.60;99.90;;;;;;5076309;28;20044;-66
2021/12/22 09:01:07;;;;;;;18.60;11.73;;;-0.50;99.90;;;;;;5076622;28;20135;-66
2021/12/22 09:03:33;;;;;;;22.27;12.55;;;-0.50;99.90;;;;;;5075585;28;20039;-66
2021/12/22 09:06:00;;;;;;;17.38;11.65;;;-0.40;99.90;;;;;;5075468;28;20108;-66
2021/12/22 09:08:26;;;;;;;23.42;13.48;;;-0.30;99.90;;;;;;5075361;28;20070;-66
2021/12/22 09:10:51;;;;;;;33.75;12.90;;;-0.20;99.90;;;;;;5076233;28;20025;-66
2021/12/22 09:13:19;;;;;;;21.15;12.25;;;-0.10;99.90;;;;;;5076214;28;20025;-66
2021/12/22 09:15:46;;;;;;;19.48;12.95;;;0.00;99.90;;;;;;5078556;28;20036;-66
2021/12/22 09:18:12;;;;;;;25.77;13.55;;;0.10;99.90;;;;;;5079194;28;20035;-66
2021/12/22 09:20:38;;;;;;;27.02;14.63;;;0.10;99.90;;;;;;5079902;28;20028;-65
2021/12/22 09:23:04;;;;;;;24.73;14.52;;;0.20;99.90;;;;;;5079517;28;20029;-66
2021/12/22 09:25:30;;;;;;;23.13;14.32;;;0.40;99.90;;;;;;5079854;28;20087;-66
2021/12/22 09:27:58;;;;;;;25.35;14.43;;;0.50;99.90;;;;;;5079007;28;20132;-66
2021/12/22 09:30:25;;;;;;;21.25;14.93;;;0.60;99.90;;;;;;5079716;28;20032;-65
2021/12/22 09:32:51;;;;;;;20.20;14.40;;;0.60;99.90;;;;;;5062167;28;20292;-65
2021/12/22 09:35:17;;;;;;;22.73;14.05;;;0.70;99.90;;;;;;5079763;28;20045;-66
2021/12/22 09:37:42;;;;;;;20.10;12.82;;;0.90;99.90;;;;;;5078814;28;20044;-65
2021/12/22 09:40:09;;;;;;;23.70;14.05;;;1.00;99.90;;;;;;5078787;28;20400;-65
2021/12/22 09:42:35;;;;;;;21.50;12.90;;;1.10;99.90;;;;;;5079023;28;20029;-65
2021/12/22 09:45:02;;;;;;;21.77;12.82;;;1.20;99.90;;;;;;5079262;28;20041;-66
2021/12/22 09:47:36;;;;;;;20.63;13.02;;;1.30;99.90;;;;;;5079054;28;20039;-65
2021/12/22 09:52:31;;;;;;;15.80;10.80;;;1.60;99.90;;;;;;5062248;28;20021;-66
2021/12/22 09:55:01;;;;;;;17.77;11.95;;;1.70;99.90;;;;;;5079752;28;20293;-65
2021/12/22 09:57:29;;;;;;;18.38;11.10;;;1.80;99.90;;;;;;5079084;28;20033;-65
2021/12/22 09:59:57;;;;;;;18.38;10.30;;;2.20;99.90;;;;;;5079914;28;20024;-66
2021/12/22 10:02:28;;;;;;;15.18;9.63;;;2.80;99.90;;;;;;5079103;28;20303;-66
2021/12/22 10:04:58;;;;;;;13.77;9.27;;;3.30;99.90;;;;;;5079141;28;20055;-66
2021/12/22 10:07:27;;;;;;;12.30;9.30;;;3.60;99.90;;;;;;5078866;28;20115;-66
2021/12/22 10:09:55;;;;;;;16.15;9.75;;;3.90;99.90;;;;;;5078293;28;20028;-66
2021/12/22 10:12:24;;;;;;;15.70;9.90;;;4.30;99.90;;;;;;5078195;28;20093;-66
2021/12/22 10:14:55;;;;;;;15.05;9.35;;;4.40;99.90;;;;;;5078846;28;20024;-66
2021/12/22 10:17:38;;;;;;;12.10;9.03;;;4.60;99.90;;;;;;5078778;28;20080;-66
2021/12/22 10:20:10;;;;;;;15.40;9.43;;;5.20;99.90;;;;;;5079274;28;20530;-66
2021/12/22 10:22:40;;;;;;;13.20;9.35;;;5.60;99.90;;;;;;5078013;28;20029;-67
2021/12/22 10:25:16;;;;;;;16.05;9.25;;;5.60;99.90;;;;;;5078737;28;20099;-66
2021/12/22 10:27:56;;;;;;;12.50;9.13;;;6.00;99.90;;;;;;5060015;28;20039;-66
2021/12/22 10:30:30;;;;;;;13.77;8.70;;;6.30;99.90;;;;;;5078621;28;20119;-65
2021/12/22 10:33:05;;;;;;;14.68;9.43;;;6.80;99.90;;;;;;5078539;28;20027;-66
2021/12/22 10:35:37;;;;;;;16.48;9.38;;;7.50;99.90;;;;;;5078401;28;20365;-65
2021/12/22 10:38:04;;;;;;;13.95;9.02;;;7.90;99.90;;;;;;5078574;28;20048;-66
2021/12/22 10:40:36;;;;;;;13.52;8.82;;;8.40;99.90;;;;;;5078346;28;20031;-63
2021/12/22 10:43:04;;;;;;;12.90;8.55;;;8.20;99.90;;;;;;5077563;28;20094;-66
2021/12/22 10:45:34;;;;;;;11.90;9.50;;;7.60;99.90;;;;;;5078353;28;20060;-66
2021/12/22 10:50:56;;;;;;;12.98;9.15;;;7.20;99.90;;;;;;5078274;28;20087;-66
2021/12/22 10:53:22;;;;;;;14.40;9.07;;;7.20;99.90;;;;;;5078174;28;20029;-66
2021/12/22 10:55:50;;;;;;;12.73;9.43;;;7.00;99.90;;;;;;5077522;28;20087;-67
2021/12/22 10:58:26;;;;;;;15.98;9.30;;;6.90;99.90;;;;;;5078102;28;20059;-66
2021/12/22 11:01:18;;;;;;;13.68;9.35;;;6.60;99.90;;;;;;5077378;28;20039;-66
2021/12/22 11:03:50;;;;;;;16.00;9.40;;;6.50;99.90;;;;;;5075516;28;20105;-67
2021/12/22 11:06:24;;;;;;;13.35;8.73;;;6.70;99.90;;;;;;5078393;28;20071;-67
2021/12/22 11:08:56;;;;;;;13.90;8.48;;;6.90;99.90;;;;;;5077323;28;20029;-68
2021/12/22 11:11:23;;;;;;;15.10;8.93;;;6.90;99.90;;;;;;5077216;28;20291;-67
2021/12/22 11:14:10;;;;;;;12.35;8.63;;;7.10;99.90;;;;;;5077197;28;20038;-67
2021/12/22 11:17:03;;;;;;;12.13;8.73;;;7.00;99.90;;;;;;5077825;28;20043;-67
2021/12/22 11:19:33;;;;;;;;;;;7.10;99.90;;;;;;5078776;28;20098;-66
2021/12/22 11:22:13;;;;;;;11.25;8.88;;;7.00;99.90;;;;;;5077832;28;20194;-66
2021/12/22 11:24:43;;;;;;;14.05;8.98;;;7.00;99.90;;;;;;5077316;28;20296;-67
2021/12/22 11:27:12;;;;;;;12.23;8.98;;;6.90;99.90;;;;;;5077443;28;20029;-67
2021/12/22 11:29:41;;;;;;;11.77;8.90;;;6.70;99.90;;;;;;5077495;28;20319;-67
2021/12/22 11:32:09;;;;;;;14.10;8.95;;;6.50;99.90;;;;;;5077340;28;20032;-67
2021/12/22 11:34:38;;;;;;;14.38;9.48;;;6.50;99.90;;;;;;5076585;28;20075;-67
2021/12/22 11:37:10;;;;;;;13.20;8.93;;;6.20;99.90;;;;;;5076245;28;20020;-67
2021/12/22 11:39:37;;;;;;;14.15;9.63;;;5.90;99.90;;;;;;5077853;28;20060;-66
2021/12/22 11:42:07;;;;;;;13.80;9.60;;;5.80;99.90;;;;;;5076614;28;20197;-67
2021/12/22 11:44:34;;;;;;;13.23;8.98;;;5.80;99.90;;;;;;5076595;28;20044;-67
2021/12/22 11:47:04;;;;;;;18.27;9.73;;;5.80;99.90;;;;;;5076495;28;20033;-67
2021/12/22 11:49:34;;;;;;;12.30;9.20;;;5.60;99.90;;;;;;5077084;28;20033;-67
2021/12/22 11:52:02;;;;;;;16.15;9.73;;;5.40;99.90;;;;;;5077309;28;20028;-67
2021/12/22 11:54:28;;;;;;;14.38;9.48;;;5.40;99.90;;;;;;5077134;28;20035;-67
2021/12/22 11:56:59;;;;;;;12.02;8.75;;;5.40;99.90;;;;;;5077005;28;20024;-68
2021/12/22 11:59:34;;;;;;;12.77;8.80;;;5.40;99.90;;;;;;5077730;28;20265;-67
2021/12/22 12:02:31;;;;;;;12.23;9.18;;;5.20;99.90;;;;;;5077084;28;20343;-67
2021/12/22 12:05:27;;;;;;;12.27;8.43;;;5.20;99.90;;;;;;5077487;28;20280;-68
2021/12/22 12:07:59;;;;;;;15.18;7.95;;;5.00;99.90;;;;;;5076845;28;20047;-68
2021/12/22 12:10:44;;;;;;;13.38;8.52;;;5.20;99.90;;;;;;5076773;28;20060;-68
2021/12/22 12:13:46;;;;;;;13.43;9.10;;;5.10;99.90;;;;;;5077178;28;20122;-67
2021/12/22 12:22:08;;;;;;;12.13;8.40;;;5.10;99.90;;;;;;5077062;28;20077;-69
2021/12/22 12:24:39;;;;;;;15.30;8.13;;;5.10;99.90;;;;;;5076895;28;20327;-69
2021/12/22 12:27:36;;;;;;;13.15;7.88;;;5.20;99.90;;;;;;5076758;28;20028;-68
2021/12/22 12:30:28;;;;;;;18.80;9.15;;;5.10;99.90;;;;;;5076801;28;20033;-67
2021/12/22 12:32:55;;;;;;;10.25;7.50;;;5.20;99.90;;;;;;5059259;28;20334;-67
2021/12/22 12:35:23;;;;;;;13.98;8.93;;;5.10;99.90;;;;;;5075634;28;20080;-66
2021/12/22 12:38:06;;;;;;;14.48;8.35;;;4.80;99.90;;;;;;5075767;28;20324;-67
2021/12/22 12:40:54;;;;;;;13.00;8.52;;;4.90;99.90;;;;;;5076542;28;20040;-67
2021/12/22 12:43:40;;;;;;;13.27;8.50;;;5.00;99.90;;;;;;5075686;28;20068;-68
2021/12/22 12:46:21;;;;;;;11.35;8.00;;;5.10;99.90;;;;;;5076374;28;20328;-67
2021/12/22 12:48:52;;;;;;;13.02;7.97;;;5.00;99.90;;;;;;5075559;28;20029;-67
2021/12/22 12:51:33;;;;;;;10.70;7.95;;;5.00;99.90;;;;;;5079153;28;20391;-67
2021/12/22 12:54:25;;;;;;;10.95;8.20;;;4.90;99.90;;;;;;5079736;28;20029;-68
2021/12/22 12:56:59;;;;;;;13.25;8.85;;;5.00;99.90;;;;;;5080636;28;20047;-68
2021/12/22 12:59:40;;;;;;;11.98;8.60;;;5.10;99.90;;;;;;5080817;28;20049;-67
2021/12/22 13:02:21;;;;;;;10.50;8.02;;;5.10;99.90;;;;;;5080396;28;20090;-67
2021/12/22 13:04:47;;;;;;;10.98;8.05;;;5.20;99.90;;;;;;5080407;28;20276;-67
2021/12/22 13:07:16;;;;;;;11.35;8.40;;;5.00;99.90;;;;;;5062945;28;20333;-67
2021/12/22 13:09:44;;;;;;;13.25;9.13;;;5.10;99.90;;;;;;5080241;28;20032;-67